Time;durP1;ratioP1;P1;durP2;ratioP2;P2;SDS_P1;SDS_P2;PMS_P1;PMS_P2;Temp;Humidity;BMP_temperature;BMP_pressure;BME280_temperature;BME280_humidity;BME280_pressure;Samples;Min_cycle;Max_cycle;Signal;HPM_P1;HPM_P2
2022/11/13 00:01:19;;;;;;;16.83;15.10;;;5.00;99.90;;;;;;5056038;28;20141;-46
2022/11/13 00:03:45;;;;;;;;;;;4.90;99.90;;;;;;5055801;28;20371;-48
2022/11/13 00:06:12;;;;;;;17.17;15.32;;;5.00;99.90;;;;;;5055998;28;19928;-45
2022/11/13 00:08:38;;;;;;;16.90;14.60;;;5.00;99.90;;;;;;5055259;28;20110;-42
2022/11/13 00:11:07;;;;;;;18.35;16.65;;;5.00;99.90;;;;;;5056536;28;20136;-43
2022/11/13 00:13:33;;;;;;;18.48;16.48;;;5.00;99.90;;;;;;5055532;28;20048;-42
2022/11/13 00:16:00;;;;;;;14.77;13.10;;;4.90;99.90;;;;;;5055561;28;20615;-45
2022/11/13 00:18:27;;;;;;;16.67;14.90;;;5.00;99.90;;;;;;5055069;28;20154;-42
2022/11/13 00:20:52;;;;;;;29.58;16.27;;;5.00;99.90;;;;;;5053896;28;20044;-42
2022/11/13 00:23:18;;;;;;;178.77;20.42;;;4.90;99.90;;;;;;5050081;28;20441;-44
2022/11/13 00:25:43;;;;;;;68.43;15.07;;;4.90;99.90;;;;;;5056442;28;20130;-45
2022/11/13 00:28:09;;;;;;;27.13;14.20;;;4.70;99.90;;;;;;5054428;28;20055;-44
2022/11/13 00:30:35;;;;;;;18.98;14.13;;;4.70;99.90;;;;;;5055399;28;20481;-43
2022/11/13 00:33:01;;;;;;;16.20;14.48;;;4.70;99.90;;;;;;5054985;28;20044;-48
2022/11/13 00:35:26;;;;;;;22.90;19.77;;;4.80;99.90;;;;;;5056070;28;20093;-47
2022/11/13 00:37:53;;;;;;;22.77;20.40;;;4.90;99.90;;;;;;5054743;28;20462;-43
2022/11/13 00:40:18;;;;;;;28.67;22.48;;;5.00;99.90;;;;;;5052495;28;20059;-48
2022/11/13 00:42:44;;;;;;;28.75;25.55;;;5.10;99.90;;;;;;5054557;28;20048;-44
2022/11/13 00:45:10;;;;;;;31.40;25.30;;;5.20;99.90;;;;;;5053788;28;20043;-42
2022/11/13 00:47:35;;;;;;;28.55;23.45;;;5.30;99.90;;;;;;5054442;28;20110;-43
2022/11/13 00:50:01;;;;;;;30.13;25.35;;;5.30;99.90;;;;;;5055421;28;20415;-43
2022/11/13 00:52:27;;;;;;;30.40;25.15;;;5.40;99.90;;;;;;5055061;28;20532;-42
2022/11/13 00:54:53;;;;;;;28.45;24.95;;;5.60;99.90;;;;;;5054341;28;20059;-44
2022/11/13 00:57:18;;;;;;;29.05;24.58;;;5.70;99.90;;;;;;5054330;28;20048;-44
2022/11/13 00:59:44;;;;;;;37.75;25.40;;;5.60;99.90;;;;;;5054259;28;20131;-44
2022/11/13 01:02:11;;;;;;;28.15;24.95;;;5.70;99.90;;;;;;5055299;28;20149;-41
2022/11/13 01:04:37;;;;;;;28.92;23.85;;;5.70;99.90;;;;;;5054722;28;20060;-44
2022/11/13 01:07:03;;;;;;;29.13;24.05;;;5.80;99.90;;;;;;5054047;28;20052;-45
2022/11/13 01:09:28;;;;;;;30.25;24.17;;;5.80;99.90;;;;;;5053339;28;20060;-46
2022/11/13 01:11:54;;;;;;;27.98;23.50;;;5.80;99.90;;;;;;5053169;28;20060;-44
2022/11/13 01:14:19;;;;;;;28.05;22.77;;;5.90;99.90;;;;;;5054378;28;20394;-43
2022/11/13 01:16:45;;;;;;;27.42;22.90;;;5.90;99.90;;;;;;5053762;28;20620;-43
2022/11/13 01:19:11;;;;;;;27.15;22.55;;;6.00;99.90;;;;;;5055155;28;20056;-43
2022/11/13 01:21:36;;;;;;;26.95;22.13;;;6.10;99.90;;;;;;5046260;28;20244;-44
2022/11/13 01:24:02;;;;;;;27.13;22.83;;;6.10;99.90;;;;;;5045577;28;20080;-46
2022/11/13 01:26:29;;;;;;;24.77;22.17;;;6.10;99.90;;;;;;5053662;28;20048;-43
2022/11/13 01:28:58;;;;;;;25.90;20.90;;;6.20;99.90;;;;;;5054289;28;20082;-43
2022/11/13 01:31:27;;;;;;;25.77;21.05;;;6.20;99.90;;;;;;5054058;28;20083;-45
2022/11/13 01:33:53;;;;;;;24.05;19.95;;;6.20;99.90;;;;;;5053241;28;20110;-44
2022/11/13 01:36:22;;;;;;;23.08;20.33;;;6.30;99.90;;;;;;5054183;28;20049;-46
2022/11/13 01:38:48;;;;;;;24.42;20.80;;;6.30;99.90;;;;;;5053742;28;20127;-45
2022/11/13 01:41:21;;;;;;;22.73;20.30;;;6.30;99.90;;;;;;5049083;28;20452;-44
2022/11/13 01:43:47;;;;;;;24.95;20.27;;;6.30;99.90;;;;;;5052722;28;20044;-41
2022/11/13 01:46:18;;;;;;;24.52;21.08;;;6.30;99.90;;;;;;5054516;28;20131;-42
2022/11/13 01:48:48;;;;;;;22.40;19.83;;;6.30;99.90;;;;;;5053572;28;20052;-45
2022/11/13 01:51:37;;;;;;;25.00;20.63;;;6.30;99.90;;;;;;5054425;28;20075;-44
2022/11/13 01:54:08;;;;;;;23.38;18.58;;;6.40;99.90;;;;;;5053441;28;20105;-43
2022/11/13 01:56:35;;;;;;;24.52;19.10;;;6.40;99.90;;;;;;5053578;28;20420;-42
2022/11/13 01:59:11;;;;;;;23.52;19.27;;;6.50;99.90;;;;;;5053994;28;20309;-44
2022/11/13 02:01:37;;;;;;;25.40;20.63;;;6.50;99.90;;;;;;5053664;28;20048;-42
2022/11/13 02:04:03;;;;;;;23.05;20.63;;;6.50;99.90;;;;;;5053226;28;20458;-43
2022/11/13 02:06:49;;;;;;;26.45;21.45;;;6.60;99.90;;;;;;5053134;28;20051;-46
2022/11/13 02:09:21;;;;;;;23.85;20.80;;;6.50;99.90;;;;;;5044469;28;20363;-42
2022/11/13 02:11:46;;;;;;;26.42;21.65;;;6.50;99.90;;;;;;5052294;28;20056;-43
2022/11/13 02:14:14;;;;;;;26.13;20.45;;;6.50;99.90;;;;;;5053798;28;20355;-41
2022/11/13 02:16:41;;;;;;;23.38;19.75;;;6.40;99.90;;;;;;5053179;28;20045;-45
2022/11/13 02:19:15;;;;;;;24.55;20.58;;;6.40;99.90;;;;;;5054110;28;20082;-42
2022/11/13 02:21:52;;;;;;;23.38;20.60;;;6.40;99.90;;;;;;5049393;28;20057;-43
2022/11/13 02:24:26;;;;;;;25.73;21.70;;;6.30;99.90;;;;;;5053359;28;20056;-41
2022/11/13 02:26:55;;;;;;;26.35;21.02;;;6.30;99.90;;;;;;5053173;28;20048;-46
2022/11/13 02:29:21;;;;;;;22.73;20.33;;;6.20;99.90;;;;;;5053475;28;20128;-44
2022/11/13 02:31:46;;;;;;;22.17;19.88;;;6.20;99.90;;;;;;5053703;28;20484;-45
2022/11/13 02:34:12;;;;;;;21.65;19.35;;;6.20;99.90;;;;;;5052763;28;20084;-44
2022/11/13 02:36:38;;;;;;;23.15;20.02;;;6.10;99.90;;;;;;5052845;28;20065;-40
2022/11/13 02:39:07;;;;;;;23.45;19.52;;;6.00;99.90;;;;;;5053770;28;20074;-43
2022/11/13 02:41:33;;;;;;;23.42;19.25;;;6.00;99.90;;;;;;5051603;28;20056;-44
2022/11/13 02:43:59;;;;;;;21.63;18.92;;;6.00;99.90;;;;;;5056360;28;20078;-45
2022/11/13 02:46:24;;;;;;;24.63;19.17;;;6.00;99.90;;;;;;5057455;28;20434;-45
2022/11/13 02:48:50;;;;;;;25.38;20.42;;;6.00;99.90;;;;;;5057857;28;20106;-41
2022/11/13 02:51:15;;;;;;;22.75;20.40;;;6.10;99.90;;;;;;5057412;28;20455;-46
2022/11/13 02:53:41;;;;;;;23.58;20.50;;;6.00;99.90;;;;;;5056346;28;21009;-43
2022/11/13 02:56:07;;;;;;;25.25;20.95;;;6.00;99.90;;;;;;5056838;28;20082;-48
2022/11/13 02:58:33;;;;;;;23.25;19.77;;;6.00;99.90;;;;;;5056223;28;20076;-41
2022/11/13 03:01:01;;;;;;;22.65;19.38;;;6.00;99.90;;;;;;5057471;28;20047;-46
2022/11/13 03:03:27;;;;;;;23.17;19.48;;;6.00;99.90;;;;;;5056653;28;20053;-44
2022/11/13 03:05:52;;;;;;;26.02;21.30;;;6.10;99.90;;;;;;5056955;28;20056;-45
2022/11/13 03:08:18;;;;;;;21.60;19.38;;;6.10;99.90;;;;;;5055479;28;20812;-41
2022/11/13 03:10:45;;;;;;;20.42;18.20;;;6.10;99.90;;;;;;5055466;28;20494;-42
2022/11/13 03:13:10;;;;;;;21.08;18.58;;;6.10;99.90;;;;;;5055051;28;20512;-45
2022/11/13 03:15:36;;;;;;;23.73;20.02;;;6.20;99.90;;;;;;5056776;28;20044;-42
2022/11/13 03:18:04;;;;;;;23.70;20.05;;;6.20;99.90;;;;;;5056361;28;20055;-42
2022/11/13 03:20:31;;;;;;;22.80;20.40;;;6.20;99.90;;;;;;5056745;28;20048;-42
2022/11/13 03:22:56;;;;;;;25.40;21.08;;;6.20;99.90;;;;;;5052961;28;20096;-45
2022/11/13 03:25:22;;;;;;;24.27;20.65;;;6.10;99.90;;;;;;5056825;28;20499;-42
2022/11/13 03:27:48;;;;;;;24.15;20.35;;;6.10;99.90;;;;;;5056401;28;20048;-46
2022/11/13 03:30:13;;;;;;;24.85;20.88;;;6.10;99.90;;;;;;5057525;28;20067;-45
2022/11/13 03:32:39;;;;;;;23.13;20.67;;;6.00;99.90;;;;;;5056468;28;20465;-45
2022/11/13 03:35:05;;;;;;;22.38;19.98;;;6.00;99.90;;;;;;5056269;28;20403;-45
2022/11/13 03:37:31;;;;;;;22.88;20.02;;;6.00;99.90;;;;;;5055507;28;20053;-43
2022/11/13 03:39:56;;;;;;;22.88;20.55;;;6.00;99.90;;;;;;5056058;28;20056;-44
2022/11/13 03:42:22;;;;;;;23.83;19.30;;;6.00;99.90;;;;;;5052398;28;20052;-43
2022/11/13 03:44:47;;;;;;;23.15;19.30;;;6.00;99.90;;;;;;5056126;28;20491;-42
2022/11/13 03:47:14;;;;;;;24.77;20.33;;;6.00;99.90;;;;;;5055942;28;20059;-41
2022/11/13 03:49:39;;;;;;;25.13;20.30;;;6.00;99.90;;;;;;5055628;28;20505;-45
2022/11/13 03:52:05;;;;;;;22.83;20.17;;;6.00;99.90;;;;;;5055966;28;20056;-45
2022/11/13 03:54:31;;;;;;;21.77;19.48;;;6.00;99.90;;;;;;5055442;28;20561;-43
2022/11/13 03:56:56;;;;;;;24.48;19.35;;;6.10;99.90;;;;;;5054252;28;20459;-49
2022/11/13 03:59:22;;;;;;;20.42;18.33;;;6.20;99.90;;;;;;5056159;28;20045;-44
2022/11/13 04:01:48;;;;;;;21.88;18.67;;;6.20;99.90;;;;;;5055710;28;20603;-42
2022/11/13 04:04:14;;;;;;;21.73;19.40;;;6.30;99.90;;;;;;5055375;28;20494;-45
2022/11/13 04:06:40;;;;;;;21.45;19.15;;;6.20;99.90;;;;;;5054561;28;20395;-45
2022/11/13 04:09:06;;;;;;;23.83;19.80;;;6.30;99.90;;;;;;5055362;28;20056;-42
2022/11/13 04:11:32;;;;;;;24.92;20.73;;;6.40;99.90;;;;;;5054653;28;20049;-45
2022/11/13 04:13:58;;;;;;;22.98;20.27;;;6.30;99.90;;;;;;5054748;28;20052;-41
2022/11/13 04:16:24;;;;;;;23.05;20.00;;;6.30;99.90;;;;;;5053639;28;20985;-45
2022/11/13 04:18:49;;;;;;;23.38;20.95;;;6.40;99.90;;;;;;5055659;28;20127;-47
2022/11/13 04:21:15;;;;;;;23.10;19.75;;;6.30;99.90;;;;;;5051420;28;20500;-43
2022/11/13 04:23:41;;;;;;;21.60;19.30;;;6.30;99.90;;;;;;5053139;28;20597;-43
2022/11/13 04:26:06;;;;;;;22.58;19.17;;;6.40;99.90;;;;;;5054959;28;20125;-45
2022/11/13 04:28:32;;;;;;;24.15;19.45;;;6.30;99.90;;;;;;5053222;28;20063;-44
2022/11/13 04:30:58;;;;;;;23.33;20.30;;;6.30;99.90;;;;;;5055436;28;20048;-42
2022/11/13 04:33:23;;;;;;;21.65;19.40;;;6.30;99.90;;;;;;5055280;28;20522;-44
2022/11/13 04:35:49;;;;;;;22.35;19.90;;;6.30;99.90;;;;;;5055389;28;20112;-45
2022/11/13 04:38:15;;;;;;;25.33;19.25;;;6.30;99.90;;;;;;5054762;28;20521;-43
2022/11/13 04:40:41;;;;;;;24.70;21.35;;;6.20;99.90;;;;;;5050742;28;20358;-43
2022/11/13 04:43:06;;;;;;;23.55;21.08;;;6.20;99.90;;;;;;5054406;28;20036;-45
2022/11/13 04:45:33;;;;;;;23.75;20.88;;;6.20;99.90;;;;;;5053395;28;20376;-47
2022/11/13 04:47:58;;;;;;;25.50;22.10;;;6.10;99.90;;;;;;5054464;28;20087;-46
2022/11/13 04:50:24;;;;;;;24.38;21.05;;;6.10;99.90;;;;;;5055556;28;20538;-42
2022/11/13 04:52:50;;;;;;;23.55;20.83;;;6.10;99.90;;;;;;5054252;28;20044;-43
2022/11/13 04:55:16;;;;;;;24.35;21.75;;;6.00;99.90;;;;;;5053439;28;20052;-48
2022/11/13 04:57:41;;;;;;;25.90;21.23;;;6.00;99.90;;;;;;5054588;28;20088;-46
2022/11/13 05:00:08;;;;;;;27.85;21.70;;;6.00;99.90;;;;;;5054272;28;20044;-42
2022/11/13 05:02:34;;;;;;;25.25;21.80;;;6.00;99.90;;;;;;5053579;28;20109;-47
2022/11/13 05:05:00;;;;;;;24.65;22.05;;;6.00;99.90;;;;;;5053448;28;20464;-43
2022/11/13 05:07:26;;;;;;;24.08;21.67;;;6.00;99.90;;;;;;5053044;28;20056;-45
2022/11/13 05:09:52;;;;;;;25.40;21.85;;;6.00;99.90;;;;;;5055004;28;20056;-46
2022/11/13 05:12:18;;;;;;;24.13;21.63;;;6.00;99.90;;;;;;5054735;28;20049;-41
2022/11/13 05:14:44;;;;;;;25.65;22.80;;;6.00;99.90;;;;;;5053612;28;20074;-47
2022/11/13 05:17:11;;;;;;;25.00;22.30;;;6.00;99.90;;;;;;5053769;28;20493;-42
2022/11/13 05:19:37;;;;;;;24.08;21.40;;;6.00;99.90;;;;;;5054106;28;20048;-42
2022/11/13 05:22:03;;;;;;;24.15;21.35;;;6.00;99.90;;;;;;5044727;28;20181;-44
2022/11/13 05:24:29;;;;;;;23.63;21.10;;;5.90;99.90;;;;;;5046168;28;20070;-45
2022/11/13 05:26:55;;;;;;;27.13;23.77;;;5.90;99.90;;;;;;5042688;28;20048;-46
2022/11/13 05:29:20;;;;;;;26.38;23.33;;;5.90;99.90;;;;;;5051047;28;20373;-43
2022/11/13 05:31:47;;;;;;;27.45;23.20;;;5.90;99.90;;;;;;5054611;28;20085;-45
2022/11/13 05:34:13;;;;;;;28.30;23.45;;;5.90;99.90;;;;;;5053446;28;20152;-41
2022/11/13 05:36:39;;;;;;;25.83;22.92;;;5.90;99.90;;;;;;5052047;28;20495;-46
2022/11/13 05:39:05;;;;;;;24.70;22.15;;;5.80;99.90;;;;;;5053696;28;20480;-44
2022/11/13 05:41:31;;;;;;;26.30;22.90;;;5.90;99.90;;;;;;5049791;28;20417;-48
2022/11/13 05:43:57;;;;;;;27.50;23.45;;;5.90;99.90;;;;;;5053738;28;20478;-44
2022/11/13 05:46:25;;;;;;;26.10;23.27;;;5.80;99.90;;;;;;5054128;28;20528;-41
2022/11/13 05:48:53;;;;;;;26.25;23.45;;;5.80;99.90;;;;;;5053039;28;20052;-47
2022/11/13 05:51:22;;;;;;;30.33;24.73;;;5.80;99.90;;;;;;5054389;28;20060;-45
2022/11/13 05:53:48;;;;;;;24.45;21.63;;;5.70;99.90;;;;;;5053450;28;20048;-41
2022/11/13 05:56:22;;;;;;;24.67;21.95;;;5.70;99.90;;;;;;5054090;28;20062;-44
2022/11/13 05:58:49;;;;;;;26.88;22.67;;;5.70;99.90;;;;;;5054097;28;20389;-40
2022/11/13 06:01:17;;;;;;;24.83;22.17;;;5.60;99.90;;;;;;5054256;28;20141;-45
2022/11/13 06:03:43;;;;;;;25.88;22.52;;;5.70;99.90;;;;;;5053435;28;20522;-45
2022/11/13 06:06:12;;;;;;;27.25;22.13;;;5.60;99.90;;;;;;5053774;28;20067;-42
2022/11/13 06:08:38;;;;;;;25.80;22.88;;;5.60;99.90;;;;;;5053965;28;20052;-44
2022/11/13 06:11:09;;;;;;;25.25;22.67;;;5.60;99.90;;;;;;5054152;28;20049;-43
2022/11/13 06:13:35;;;;;;;27.55;24.60;;;5.50;99.90;;;;;;5053360;28;20037;-41
2022/11/13 06:16:13;;;;;;;29.27;23.38;;;5.50;99.90;;;;;;5055395;28;20518;-44
2022/11/13 06:18:41;;;;;;;26.67;23.50;;;5.60;99.90;;;;;;5058135;28;20055;-40
2022/11/13 06:21:18;;;;;;;27.17;23.75;;;5.50;99.90;;;;;;5054741;28;20048;-42
2022/11/13 06:23:44;;;;;;;30.27;24.60;;;5.40;99.90;;;;;;5049096;28;20056;-46
2022/11/13 06:26:23;;;;;;;30.23;25.02;;;5.40;99.90;;;;;;5056922;28;20453;-41
2022/11/13 06:28:48;;;;;;;33.60;26.42;;;5.30;99.90;;;;;;5057580;28;20467;-47
2022/11/13 06:31:23;;;;;;;31.90;26.83;;;5.20;99.90;;;;;;5057418;28;20125;-45
2022/11/13 06:33:49;;;;;;;31.33;26.67;;;5.20;99.90;;;;;;5055110;28;20396;-44
2022/11/13 06:36:23;;;;;;;36.58;29.25;;;5.20;99.90;;;;;;5056557;28;20177;-46
2022/11/13 06:38:49;;;;;;;45.45;28.80;;;5.10;99.90;;;;;;5056942;28;20854;-44
2022/11/13 06:41:18;;;;;;;30.95;26.67;;;5.10;99.90;;;;;;5052691;28;20048;-47
2022/11/13 06:43:44;;;;;;;30.20;25.30;;;5.20;99.90;;;;;;5056362;28;20059;-44
2022/11/13 06:46:18;;;;;;;29.20;25.98;;;5.10;99.90;;;;;;5056100;28;20129;-42
2022/11/13 06:48:44;;;;;;;31.13;25.00;;;5.10;99.90;;;;;;5055586;28;20087;-45
2022/11/13 06:51:20;;;;;;;30.70;25.38;;;5.00;99.90;;;;;;5056928;28;20131;-43
2022/11/13 06:53:46;;;;;;;30.52;25.27;;;5.00;99.90;;;;;;5056489;28;20036;-46
2022/11/13 06:56:12;;;;;;;30.25;24.90;;;5.10;99.90;;;;;;5056215;28;20133;-43
2022/11/13 06:58:38;;;;;;;30.40;25.38;;;5.10;99.90;;;;;;5057435;28;20133;-43
2022/11/13 07:01:09;;;;;;;29.15;25.98;;;5.10;99.90;;;;;;5057443;28;20087;-43
2022/11/13 07:03:35;;;;;;;29.65;24.73;;;5.10;99.90;;;;;;5055897;28;20080;-43
2022/11/13 07:06:06;;;;;;;31.08;26.02;;;5.20;99.90;;;;;;5056132;28;20059;-45
2022/11/13 07:08:32;;;;;;;29.45;25.23;;;5.20;99.90;;;;;;5056430;28;20541;-45
2022/11/13 07:10:58;;;;;;;28.90;24.48;;;5.20;99.90;;;;;;5055660;28;20056;-46
2022/11/13 07:13:25;;;;;;;34.20;24.77;;;5.20;99.90;;;;;;5054874;28;20107;-43
2022/11/13 07:15:51;;;;;;;28.98;23.65;;;5.20;99.90;;;;;;5056749;28;20045;-45
2022/11/13 07:18:16;;;;;;;29.25;24.05;;;5.20;99.90;;;;;;5054626;28;20086;-46
2022/11/13 07:20:42;;;;;;;27.80;24.67;;;5.20;99.90;;;;;;5056385;28;20558;-44
2022/11/13 07:23:08;;;;;;;27.60;23.90;;;5.20;99.90;;;;;;5051223;28;20620;-43
2022/11/13 07:25:34;;;;;;;28.02;23.75;;;5.10;99.90;;;;;;5056299;28;20430;-47
2022/11/13 07:28:01;;;;;;;30.65;25.88;;;5.00;99.90;;;;;;5055483;28;20051;-43
2022/11/13 07:30:26;;;;;;;28.63;24.02;;;5.00;99.90;;;;;;5056480;28;20521;-43
2022/11/13 07:32:52;;;;;;;32.35;24.65;;;5.00;99.90;;;;;;5054918;28;20052;-42
2022/11/13 07:35:18;;;;;;;29.65;25.63;;;5.00;99.90;;;;;;5056274;28;20048;-46
2022/11/13 07:37:44;;;;;;;27.88;24.85;;;5.00;99.90;;;;;;5053620;28;20052;-43
2022/11/13 07:40:10;;;;;;;27.73;24.73;;;5.10;99.90;;;;;;5051941;28;20104;-43
2022/11/13 07:42:37;;;;;;;28.40;22.70;;;5.10;99.90;;;;;;5052094;28;20078;-41
2022/11/13 07:45:04;;;;;;;28.08;24.05;;;5.20;99.90;;;;;;5056043;28;20655;-41
2022/11/13 07:47:29;;;;;;;27.95;24.63;;;5.20;99.90;;;;;;5055066;28;20051;-45
2022/11/13 07:49:55;;;;;;;24.25;21.65;;;5.30;99.90;;;;;;5055274;28;20052;-42
2022/11/13 07:52:20;;;;;;;29.35;23.92;;;5.30;99.90;;;;;;5054659;28;20052;-46
2022/11/13 07:54:46;;;;;;;27.55;22.25;;;5.40;99.90;;;;;;5054789;28;20052;-42
2022/11/13 07:57:13;;;;;;;25.80;22.48;;;5.50;99.90;;;;;;5055395;28;20048;-44
2022/11/13 07:59:38;;;;;;;29.55;23.75;;;5.60;99.90;;;;;;5054975;28;20098;-46
2022/11/13 08:02:04;;;;;;;27.27;22.35;;;5.60;99.90;;;;;;5055625;28;20494;-44
2022/11/13 08:04:30;;;;;;;26.48;22.88;;;5.70;99.90;;;;;;5055172;28;20048;-48
2022/11/13 08:06:55;;;;;;;24.08;21.48;;;5.80;99.90;;;;;;5054254;28;20131;-45
2022/11/13 08:09:21;;;;;;;24.90;22.17;;;5.80;99.90;;;;;;5055948;28;20048;-45
2022/11/13 08:11:47;;;;;;;25.30;21.50;;;5.90;99.90;;;;;;5055133;28;20410;-43
2022/11/13 08:14:12;;;;;;;23.15;20.65;;;6.00;99.90;;;;;;5054892;28;20052;-44
2022/11/13 08:16:38;;;;;;;24.23;21.77;;;6.10;99.90;;;;;;5053373;28;20493;-41
2022/11/13 08:19:03;;;;;;;24.70;21.27;;;6.20;99.90;;;;;;5054390;28;20037;-47
2022/11/13 08:21:29;;;;;;;24.05;20.73;;;6.30;99.90;;;;;;5049765;28;20402;-44
2022/11/13 08:23:55;;;;;;;26.15;21.98;;;6.40;99.90;;;;;;5055046;28;20418;-45
2022/11/13 08:26:21;;;;;;;23.65;21.15;;;6.50;99.90;;;;;;5054832;28;20055;-47
2022/11/13 08:28:47;;;;;;;25.63;20.70;;;6.60;99.90;;;;;;5055224;28;20139;-44
2022/11/13 08:31:15;;;;;;;22.67;20.23;;;6.70;99.90;;;;;;5055064;28;20098;-42
2022/11/13 08:33:42;;;;;;;23.30;19.83;;;6.80;99.90;;;;;;5054527;28;20048;-43
2022/11/13 08:36:09;;;;;;;23.05;20.60;;;6.80;99.90;;;;;;5055011;28;20415;-42
2022/11/13 08:38:35;;;;;;;21.50;19.20;;;6.90;99.90;;;;;;5054769;28;20048;-44
2022/11/13 08:41:02;;;;;;;23.45;20.08;;;7.00;99.90;;;;;;5051154;28;20044;-45
2022/11/13 08:43:28;;;;;;;24.17;20.23;;;7.00;99.90;;;;;;5052753;28;20071;-45
2022/11/13 08:45:54;;;;;;;22.38;19.75;;;7.10;99.90;;;;;;5053281;28;20056;-46
2022/11/13 08:48:21;;;;;;;22.50;19.65;;;7.10;99.90;;;;;;5053342;28;20056;-44
2022/11/13 08:50:55;;;;;;;23.85;21.35;;;7.20;99.90;;;;;;5054340;28;20053;-42
2022/11/13 08:53:21;;;;;;;21.30;18.10;;;7.30;99.90;;;;;;5054186;28;20047;-45
2022/11/13 08:55:47;;;;;;;18.45;16.60;;;7.30;99.90;;;;;;5053545;28;20052;-47
2022/11/13 08:58:13;;;;;;;22.10;18.00;;;7.40;99.90;;;;;;5055225;28;20056;-48
2022/11/13 09:00:39;;;;;;;20.33;18.23;;;7.50;99.90;;;;;;5054033;28;20048;-44
2022/11/13 09:03:04;;;;;;;19.45;17.40;;;7.60;99.90;;;;;;5054034;28;20376;-43
2022/11/13 09:05:30;;;;;;;19.63;17.40;;;7.70;99.90;;;;;;5054499;28;20573;-42
2022/11/13 09:07:58;;;;;;;17.70;15.82;;;7.70;99.90;;;;;;5054533;28;20462;-46
2022/11/13 09:10:24;;;;;;;19.90;16.50;;;7.70;99.90;;;;;;5053563;28;20094;-44
2022/11/13 09:13:04;;;;;;;18.70;16.55;;;7.80;99.90;;;;;;5052479;28;20502;-44
2022/11/13 09:15:31;;;;;;;20.92;17.08;;;7.80;99.90;;;;;;5054630;28;20048;-42
2022/11/13 09:18:01;;;;;;;18.73;16.73;;;7.90;99.90;;;;;;5054504;28;20062;-46
2022/11/13 09:20:28;;;;;;;18.50;16.25;;;7.90;99.90;;;;;;5053659;28;20055;-45
2022/11/13 09:23:01;;;;;;;17.83;16.05;;;8.00;99.90;;;;;;5053442;28;20047;-49
2022/11/13 09:25:29;;;;;;;19.48;16.85;;;8.00;99.90;;;;;;5059292;28;20113;-45
2022/11/13 09:27:56;;;;;;;17.38;15.55;;;8.00;99.90;;;;;;5054603;28;20410;-44
2022/11/13 09:30:22;;;;;;;20.05;17.73;;;8.10;99.90;;;;;;5054927;28;20135;-46
2022/11/13 09:32:52;;;;;;;19.63;16.02;;;8.10;99.90;;;;;;5053862;28;20097;-42
2022/11/13 09:35:32;;;;;;;18.80;16.42;;;8.10;99.90;;;;;;5054596;28;20109;-42
2022/11/13 09:38:18;;;;;;;18.40;16.13;;;8.20;99.90;;;;;;5052697;28;20053;-41
2022/11/13 09:41:00;;;;;;;17.67;15.77;;;8.20;99.90;;;;;;5046747;28;20060;-46
2022/11/13 09:43:38;;;;;;;20.58;17.38;;;8.20;99.90;;;;;;5052264;28;20044;-45
2022/11/13 09:46:16;;;;;;;18.50;15.88;;;8.30;99.90;;;;;;5039460;28;20175;-44
2022/11/13 09:48:57;;;;;;;20.95;16.88;;;8.30;99.90;;;;;;5053342;28;20665;-46
2022/11/13 09:51:36;;;;;;;19.85;15.95;;;8.40;99.90;;;;;;5057001;28;20158;-42
2022/11/13 09:54:10;;;;;;;21.38;17.52;;;8.50;99.90;;;;;;5056082;28;20048;-42
2022/11/13 09:57:03;;;;;;;18.35;16.38;;;8.50;99.90;;;;;;5057754;28;20279;-42
2022/11/13 09:59:41;;;;;;;17.20;15.32;;;8.60;99.90;;;;;;5056863;28;20580;-45
2022/11/13 10:02:06;;;;;;;18.60;15.57;;;8.70;99.90;;;;;;5057192;28;20048;-43
2022/11/13 10:04:50;;;;;;;18.13;15.73;;;8.80;99.90;;;;;;5057954;28;20048;-46
2022/11/13 10:07:33;;;;;;;17.00;15.20;;;8.90;99.90;;;;;;5057249;28;20479;-47
2022/11/13 10:10:17;;;;;;;36.38;29.05;;;9.00;99.90;;;;;;5056949;28;20056;-48
2022/11/13 10:12:45;;;;;;;15.10;13.60;;;9.10;99.90;;;;;;5057766;28;20472;-42
2022/11/13 10:15:10;;;;;;;13.75;12.38;;;9.20;99.90;;;;;;5045146;28;20049;-44
2022/11/13 10:17:44;;;;;;;15.20;13.38;;;9.20;99.90;;;;;;5057202;28;20045;-44
2022/11/13 10:20:21;;;;;;;14.52;13.02;;;9.30;99.90;;;;;;5057482;28;20048;-46
2022/11/13 10:22:50;;;;;;;14.70;12.60;;;9.40;99.90;;;;;;5053701;28;20048;-46
2022/11/13 10:25:22;;;;;;;15.73;13.88;;;9.50;99.90;;;;;;5058436;28;20052;-44
2022/11/13 10:27:57;;;;;;;14.23;12.80;;;9.50;99.90;;;;;;5057807;28;20053;-43
2022/11/13 10:30:23;;;;;;;13.60;12.30;;;9.60;99.90;;;;;;5058526;28;20110;-42
2022/11/13 10:32:50;;;;;;;14.68;13.18;;;9.70;99.90;;;;;;5057418;28;20075;-43
2022/11/13 10:35:34;;;;;;;14.00;12.60;;;9.70;99.90;;;;;;5057705;28;20055;-47
2022/11/13 10:38:08;;;;;;;14.18;12.77;;;9.80;99.90;;;;;;5057214;28;20048;-45
2022/11/13 10:40:38;;;;;;;;;;;9.80;99.90;;;;;;5053636;28;20056;-44
2022/11/13 10:43:15;;;;;;;18.02;12.23;;;9.90;99.90;;;;;;5056306;28;20367;-45
2022/11/13 10:45:51;;;;;;;13.98;12.48;;;10.00;99.90;;;;;;5056862;28;20251;-47
2022/11/13 10:48:27;;;;;;;14.20;12.70;;;10.10;99.90;;;;;;5057604;28;20078;-43
2022/11/13 10:51:00;;;;;;;12.60;11.07;;;10.10;99.90;;;;;;5057122;28;20083;-44
2022/11/13 10:53:39;;;;;;;14.27;12.45;;;10.10;99.90;;;;;;5056016;28;20114;-46
2022/11/13 10:56:28;;;;;;;13.02;11.73;;;10.20;99.90;;;;;;5057085;28;20132;-43
2022/11/13 10:59:16;;;;;;;13.95;12.52;;;10.20;99.90;;;;;;5057106;28;20107;-47
2022/11/13 11:01:44;;;;;;;12.80;11.50;;;10.30;99.90;;;;;;5055347;28;20056;-45
2022/11/13 11:04:26;;;;;;;12.35;11.15;;;10.40;99.90;;;;;;5055314;28;20045;-46
2022/11/13 11:06:53;;;;;;;11.80;10.60;;;10.50;99.90;;;;;;5055620;28;20664;-46
2022/11/13 11:09:30;;;;;;;12.90;11.60;;;10.50;99.90;;;;;;5056618;28;20052;-42
2022/11/13 11:12:18;;;;;;;12.10;10.90;;;10.60;99.90;;;;;;5056083;28;20218;-46
2022/11/13 11:14:56;;;;;;;12.85;11.55;;;10.70;99.90;;;;;;5056348;28;20549;-44
2022/11/13 11:17:36;;;;;;;11.77;10.68;;;10.80;99.90;;;;;;5055993;28;20110;-46
2022/11/13 11:20:09;;;;;;;12.95;11.32;;;10.80;99.90;;;;;;5056841;28;20084;-49
2022/11/13 11:22:38;;;;;;;12.32;10.98;;;10.80;99.90;;;;;;5051331;28;20044;-42
2022/11/13 11:25:32;;;;;;;12.30;11.00;;;10.80;99.90;;;;;;5056422;28;20048;-42
2022/11/13 11:28:24;;;;;;;11.63;10.50;;;10.90;99.90;;;;;;5056606;28;20048;-43
2022/11/13 11:30:58;;;;;;;12.43;11.02;;;10.90;99.90;;;;;;5032860;28;20063;-48
2022/11/13 11:33:32;;;;;;;11.63;10.40;;;10.90;99.90;;;;;;5015973;28;20140;-42
2022/11/13 11:36:21;;;;;;;11.85;10.75;;;10.90;99.90;;;;;;5032669;28;20549;-42
2022/11/13 11:38:58;;;;;;;11.38;10.27;;;11.00;99.90;;;;;;5033157;28;20088;-44
2022/11/13 11:41:51;;;;;;;12.30;11.00;;;11.10;99.90;;;;;;5016580;28;20080;-43
2022/11/13 11:44:58;;;;;;;11.95;10.43;;;11.20;99.90;;;;;;5012494;28;20057;-45
2022/11/13 11:47:24;;;;;;;11.60;10.40;;;11.40;99.90;;;;;;5013156;28;20050;-42
2022/11/13 11:49:49;;;;;;;11.82;10.05;;;11.50;99.90;;;;;;5013428;28;20053;-46
2022/11/13 11:52:24;;;;;;;10.93;9.82;;;11.70;99.90;;;;;;5016183;28;20057;-43
2022/11/13 11:55:28;;;;;;;10.77;9.52;;;11.80;99.90;;;;;;5013458;28;20057;-44
2022/11/13 11:58:02;;;;;;;11.25;10.02;;;11.90;99.90;;;;;;4925710;29;20068;-41
2022/11/13 12:00:31;;;;;;;9.60;8.70;;;12.00;99.90;;;;;;4933648;29;20066;-47
2022/11/13 12:03:14;;;;;;;10.52;9.50;;;12.10;99.90;;;;;;4934805;29;20071;-45
2022/11/13 12:06:03;;;;;;;;;;;12.20;99.90;;;;;;4935158;29;20043;-41
2022/11/13 12:08:44;;;;;;;9.38;8.48;;;12.30;99.90;;;;;;4939765;28;20001;-48
2022/11/13 12:11:10;;;;;;;9.10;8.15;;;12.40;99.90;;;;;;4954439;28;20093;-43
2022/11/13 12:14:06;;;;;;;8.68;7.78;;;12.40;99.90;;;;;;4952207;28;20050;-43
2022/11/13 12:16:52;;;;;;;9.40;8.50;;;12.40;99.90;;;;;;4940484;28;20181;-47
2022/11/13 12:20:03;;;;;;;9.50;8.60;;;12.50;99.90;;;;;;4954701;28;20058;-41
2022/11/13 12:22:45;;;;;;;8.93;8.02;;;12.50;99.90;;;;;;4919538;29;20119;-48
2022/11/13 12:25:28;;;;;;;12.70;9.05;;;12.50;99.90;;;;;;4918704;29;20055;-43
2022/11/13 12:28:09;;;;;;;;;;;12.50;99.90;;;;;;4913111;29;20607;-43
2022/11/13 12:31:20;;;;;;;8.32;7.32;;;12.50;99.90;;;;;;4920040;29;19932;-44
2022/11/13 12:33:49;;;;;;;8.77;7.97;;;12.50;99.90;;;;;;4936920;28;20121;-48
2022/11/13 12:36:15;;;;;;;8.40;7.18;;;12.60;99.90;;;;;;4938654;28;20058;-45
2022/11/13 12:38:41;;;;;;;8.30;7.50;;;12.60;99.90;;;;;;4953522;28;20063;-43
2022/11/13 12:41:28;;;;;;;8.55;7.75;;;12.70;99.90;;;;;;4957951;28;20104;-43
2022/11/13 12:44:26;;;;;;;8.52;7.35;;;12.70;99.90;;;;;;4955127;28;20076;-45
2022/11/13 12:46:54;;;;;;;8.70;7.38;;;12.70;99.90;;;;;;5032048;28;20693;-45
2022/11/13 12:49:23;;;;;;;10.43;7.72;;;12.70;99.90;;;;;;5032724;28;20461;-44
2022/11/13 12:52:03;;;;;;;8.18;7.20;;;12.70;99.90;;;;;;5031354;28;20091;-42